Time;durP1;ratioP1;P1;durP2;ratioP2;P2;SDS_P1;SDS_P2;PMS_P1;PMS_P2;Temp;Humidity;BMP_temperature;BMP_pressure;BME280_temperature;BME280_humidity;BME280_pressure;Samples;Min_cycle;Max_cycle;Signal;HPM_P1;HPM_P2
2021/11/17 02:26:57;;;;;;;24.47;10.53;;;6.70;99.90;;;;;;5035439;28;20471;-88
2021/11/17 02:29:57;;;;;;;27.20;13.90;;;6.70;99.90;;;;;;5039055;28;20446;-87
2021/11/17 02:33:00;;;;;;;29.23;11.83;;;6.60;99.90;;;;;;5034485;28;20472;-87
2021/11/17 02:35:58;;;;;;;22.17;12.57;;;6.60;99.90;;;;;;5019291;28;20563;-88
2021/11/17 02:38:39;;;;;;;27.10;12.20;;;6.60;99.90;;;;;;5035397;28;20910;-87
2021/11/17 02:41:22;;;;;;;21.53;10.53;;;6.60;99.90;;;;;;5034719;28;20810;-87
2021/11/17 02:44:22;;;;;;;22.57;10.80;;;6.50;99.90;;;;;;5035081;28;21037;-87
2021/11/17 02:47:13;;;;;;;23.83;11.90;;;6.50;99.90;;;;;;5032609;28;21027;-87
2021/11/17 02:49:54;;;;;;;27.20;12.40;;;6.50;99.90;;;;;;5035157;28;20452;-86
2021/11/17 02:52:43;;;;;;;25.70;12.07;;;6.40;99.90;;;;;;5034453;28;20474;-87
2021/11/17 02:55:35;;;;;;;20.70;9.90;;;6.40;99.90;;;;;;5032483;28;20866;-87
2021/11/17 02:58:26;;;;;;;23.13;12.67;;;6.50;99.90;;;;;;5031816;28;20951;-88
2021/11/17 03:01:16;;;;;;;25.23;12.17;;;6.30;99.90;;;;;;5034306;28;20464;-87
2021/11/17 03:03:58;;;;;;;22.17;10.77;;;6.40;99.90;;;;;;5032518;28;20979;-87
2021/11/17 03:06:42;;;;;;;23.70;10.57;;;6.30;99.90;;;;;;5035606;28;20884;-87
2021/11/17 03:09:30;;;;;;;25.83;12.30;;;6.30;99.90;;;;;;5034809;28;20452;-86
2021/11/17 03:12:17;;;;;;;26.87;13.30;;;6.20;99.90;;;;;;5034834;28;20553;-86
2021/11/17 03:14:56;;;;;;;21.50;10.07;;;6.20;99.90;;;;;;5034609;28;20483;-88
2021/11/17 03:17:41;;;;;;;25.00;11.30;;;6.20;99.90;;;;;;5014531;28;20876;-87
2021/11/17 03:20:22;;;;;;;20.97;10.63;;;6.30;99.90;;;;;;5026983;28;20440;-86
2021/11/17 03:23:04;;;;;;;23.20;11.70;;;6.30;99.90;;;;;;5036343;28;20825;-88
2021/11/17 03:25:50;;;;;;;22.63;11.23;;;6.20;99.90;;;;;;5054714;28;20521;-88
2021/11/17 03:28:30;;;;;;;29.40;11.43;;;6.30;99.90;;;;;;5034653;28;20458;-87
2021/11/17 03:31:31;;;;;;;24.80;10.83;;;6.40;99.90;;;;;;5032425;28;20447;-86
2021/11/17 03:34:20;;;;;;;29.87;13.70;;;6.40;99.90;;;;;;5034336;28;20500;-87
2021/11/17 03:37:03;;;;;;;22.97;11.50;;;6.50;99.90;;;;;;5033325;28;20451;-87
2021/11/17 03:40:01;;;;;;;24.37;13.17;;;6.50;99.90;;;;;;5032121;28;20933;-87
2021/11/17 03:42:53;;;;;;;25.37;12.20;;;6.50;99.90;;;;;;5023653;28;20478;-87
2021/11/17 03:45:38;;;;;;;27.63;14.07;;;6.60;99.90;;;;;;5033641;28;20482;-87
2021/11/17 03:48:18;;;;;;;29.63;15.13;;;6.50;99.90;;;;;;5025928;28;20543;-87
2021/11/17 03:51:07;;;;;;;27.60;12.43;;;6.50;99.90;;;;;;5033880;28;20844;-87
2021/11/17 03:53:59;;;;;;;24.03;12.33;;;6.50;99.90;;;;;;5029165;28;20502;-88
2021/11/17 03:56:49;;;;;;;28.90;13.10;;;6.60;99.90;;;;;;5030249;28;20452;-87
2021/11/17 03:59:29;;;;;;;26.60;13.80;;;6.60;99.90;;;;;;5030274;28;20534;-87
2021/11/17 04:02:21;;;;;;;28.70;13.60;;;6.60;99.90;;;;;;5033395;28;20472;-87
2021/11/17 04:05:04;;;;;;;30.40;13.83;;;6.50;99.90;;;;;;5030623;28;20982;-87
2021/11/17 04:07:48;;;;;;;27.27;13.47;;;6.50;99.90;;;;;;5033562;28;20448;-87
2021/11/17 04:10:29;;;;;;;28.57;15.57;;;6.60;99.90;;;;;;5033106;28;20428;-87
2021/11/17 04:13:07;;;;;;;26.80;13.77;;;6.50;99.90;;;;;;5033428;28;20468;-87
2021/11/17 04:15:46;;;;;;;32.57;15.33;;;6.60;99.90;;;;;;5032640;28;20582;-86
2021/11/17 04:18:24;;;;;;;30.43;15.40;;;6.60;99.90;;;;;;5033288;28;20543;-87
2021/11/17 04:21:05;;;;;;;30.60;14.13;;;6.40;99.90;;;;;;5033258;28;20439;-86
2021/11/17 04:23:48;;;;;;;27.70;13.90;;;6.40;99.90;;;;;;5033328;28;20488;-87
2021/11/17 04:26:29;;;;;;;28.97;13.60;;;6.40;99.90;;;;;;5033243;28;20485;-87
2021/11/17 04:29:38;;;;;;;32.10;14.00;;;6.40;99.90;;;;;;5033289;28;20456;-88
2021/11/17 04:32:29;;;;;;;31.03;14.63;;;6.50;99.90;;;;;;5032385;28;20470;-88
2021/11/17 04:35:17;;;;;;;31.07;14.77;;;6.30;99.90;;;;;;5033062;28;20497;-87
2021/11/17 04:38:04;;;;;;;34.73;16.33;;;6.40;99.90;;;;;;5032890;28;20458;-88
2021/11/17 04:40:47;;;;;;;25.53;15.27;;;6.30;99.90;;;;;;5032985;28;20454;-87
2021/11/17 04:43:35;;;;;;;31.10;16.33;;;6.30;99.90;;;;;;5032377;28;20525;-87
2021/11/17 04:46:15;;;;;;;34.17;14.97;;;6.30;99.90;;;;;;5024101;28;20831;-88
2021/11/17 04:49:02;;;;;;;31.27;16.93;;;6.30;99.90;;;;;;5032882;28;20462;-88
2021/11/17 04:51:57;;;;;;;34.87;17.33;;;6.30;99.90;;;;;;5032917;28;20481;-89
2021/11/17 04:54:43;;;;;;;29.23;16.57;;;6.40;99.90;;;;;;5030589;28;21266;-87
2021/11/17 04:57:24;;;;;;;36.10;16.30;;;6.40;99.90;;;;;;5032804;28;20462;-87
2021/11/17 05:00:27;;;;;;;37.77;17.83;;;6.50;99.90;;;;;;5032876;28;20545;-87
2021/11/17 05:03:07;;;;;;;38.03;16.50;;;6.40;99.90;;;;;;5032626;28;20536;-87
2021/11/17 05:05:50;;;;;;;36.03;17.60;;;6.40;99.90;;;;;;5032729;28;20445;-86
2021/11/17 05:08:26;;;;;;;33.00;17.00;;;6.40;99.90;;;;;;5032317;28;20449;-88
2021/11/17 05:11:05;;;;;;;34.03;16.27;;;6.40;99.90;;;;;;5032535;28;20952;-87
2021/11/17 05:13:43;;;;;;;34.67;15.00;;;6.60;99.90;;;;;;5032833;28;20469;-88
2021/11/17 05:16:24;;;;;;;33.23;17.30;;;6.60;99.90;;;;;;5032755;28;20480;-88
2021/11/17 05:19:01;;;;;;;32.43;16.67;;;6.70;99.90;;;;;;5036814;28;20525;-87
2021/11/17 05:21:39;;;;;;;32.40;16.07;;;6.70;99.90;;;;;;5031935;28;20938;-88
2021/11/17 05:24:29;;;;;;;33.70;15.57;;;6.70;99.90;;;;;;5033354;28;20451;-88
2021/11/17 05:27:10;;;;;;;37.10;18.20;;;6.60;99.90;;;;;;5033846;28;20518;-88
2021/11/17 05:29:55;;;;;;;32.50;16.00;;;6.60;99.90;;;;;;5047237;28;20512;-88
2021/11/17 05:32:45;;;;;;;31.80;15.33;;;6.60;99.90;;;;;;5044343;28;20468;-88
2021/11/17 05:35:38;;;;;;;27.20;14.87;;;6.60;99.90;;;;;;5026449;28;20528;-87
2021/11/17 05:38:18;;;;;;;28.83;13.30;;;6.70;99.90;;;;;;5031329;28;20523;-87
2021/11/17 05:41:04;;;;;;;33.87;17.90;;;6.80;99.90;;;;;;5027687;28;20460;-87
2021/11/17 05:43:43;;;;;;;33.33;17.20;;;6.70;99.90;;;;;;5030127;28;20559;-87
2021/11/17 05:46:22;;;;;;;32.50;16.87;;;6.60;99.90;;;;;;5037745;28;20442;-83
2021/11/17 05:49:09;;;;;;;30.33;14.57;;;6.70;99.90;;;;;;5040705;28;20445;-84
2021/11/17 05:51:50;;;;;;;32.90;15.57;;;6.70;99.90;;;;;;5036998;28;20482;-83
2021/11/17 05:54:29;;;;;;;28.47;15.87;;;6.70;99.90;;;;;;5038576;28;20456;-84
2021/11/17 05:57:18;;;;;;;33.13;15.43;;;6.70;99.90;;;;;;5037140;28;20451;-80
2021/11/17 06:00:03;;;;;;;32.83;15.67;;;6.60;99.90;;;;;;5034434;28;20793;-81
2021/11/17 06:02:44;;;;;;;33.03;15.00;;;6.70;99.90;;;;;;5024853;28;20478;-80
2021/11/17 06:05:10;;;;;;;31.83;16.80;;;6.60;99.90;;;;;;5032151;28;20470;-80
2021/11/17 06:07:37;;;;;;;31.80;14.90;;;6.60;99.90;;;;;;5032533;28;20452;-81
2021/11/17 06:10:09;;;;;;;33.30;14.33;;;6.70;99.90;;;;;;5032845;28;20441;-81
2021/11/17 06:12:50;;;;;;;34.37;15.33;;;6.60;99.90;;;;;;5034939;28;20502;-80
2021/11/17 06:15:18;;;;;;;41.80;17.17;;;6.60;99.90;;;;;;5029929;28;20504;-82
2021/11/17 06:17:48;;;;;;;29.37;14.00;;;6.60;99.90;;;;;;5037924;28;20450;-81
2021/11/17 06:20:17;;;;;;;36.33;16.90;;;6.60;99.90;;;;;;5036888;28;20458;-82
2021/11/17 06:22:47;;;;;;;28.07;14.33;;;6.60;99.90;;;;;;5037945;28;20467;-81
2021/11/17 06:25:16;;;;;;;30.70;14.43;;;6.60;99.90;;;;;;5041496;28;20435;-83
2021/11/17 06:27:46;;;;;;;31.17;16.70;;;6.60;99.90;;;;;;5044520;28;20815;-81
2021/11/17 06:30:16;;;;;;;24.10;11.20;;;6.60;99.90;;;;;;5032896;28;20466;-76
2021/11/17 06:32:43;;;;;;;24.63;11.60;;;7.20;99.90;;;;;;5033748;28;21007;-76
2021/11/17 06:35:11;;;;;;;26.90;15.10;;;7.60;99.90;;;;;;5032789;28;20487;-76
2021/11/17 06:37:38;;;;;;;23.90;13.67;;;7.70;99.90;;;;;;5030896;28;20857;-75
2021/11/17 06:40:09;;;;;;;29.97;14.03;;;7.70;99.90;;;;;;5030039;28;20450;-76
2021/11/17 06:42:40;;;;;;;27.17;13.23;;;7.60;99.90;;;;;;5032463;28;20991;-76
2021/11/17 06:45:13;;;;;;;25.13;11.70;;;7.70;99.90;;;;;;5032682;28;20445;-76
2021/11/17 06:47:40;;;;;;;29.43;14.17;;;8.00;99.90;;;;;;5030828;28;20455;-75
2021/11/17 06:50:08;;;;;;;29.60;12.03;;;8.20;99.90;;;;;;5026673;28;20534;-76
2021/11/17 06:52:37;;;;;;;25.57;14.23;;;8.20;99.90;;;;;;5031685;28;20461;-76
2021/11/17 06:55:06;;;;;;;24.27;13.03;;;8.10;99.90;;;;;;5032757;28;20492;-78
2021/11/17 06:57:34;;;;;;;30.57;15.50;;;8.10;99.90;;;;;;5031580;28;20945;-75
2021/11/17 07:00:05;;;;;;;26.50;14.40;;;8.00;99.90;;;;;;5032658;28;20821;-76
2021/11/17 07:02:32;;;;;;;27.73;14.00;;;8.00;99.90;;;;;;5028632;28;20468;-78
2021/11/17 07:04:59;;;;;;;31.03;14.30;;;7.90;99.90;;;;;;5033162;28;20461;-79
2021/11/17 07:07:26;;;;;;;28.43;14.47;;;8.00;99.90;;;;;;5034400;28;20457;-79
2021/11/17 07:09:53;;;;;;;27.97;14.50;;;7.50;99.90;;;;;;5038078;28;20445;-81
2021/11/17 07:12:22;;;;;;;29.27;15.30;;;7.60;99.90;;;;;;5037145;28;20460;-82
2021/11/17 07:14:49;;;;;;;24.97;14.00;;;7.40;99.90;;;;;;5040284;28;20531;-81
2021/11/17 07:17:20;;;;;;;26.07;13.67;;;7.30;99.90;;;;;;5029149;28;20555;-82
2021/11/17 07:19:47;;;;;;;33.90;16.63;;;7.30;99.90;;;;;;5035842;28;20524;-81
2021/11/17 07:22:13;;;;;;;26.90;14.87;;;7.30;99.90;;;;;;5035569;28;20463;-81
2021/11/17 07:24:41;;;;;;;27.53;14.90;;;7.20;99.90;;;;;;5035190;28;20441;-81
2021/11/17 07:27:18;;;;;;;26.70;15.63;;;7.30;99.90;;;;;;5029344;28;20452;-82
2021/11/17 07:29:45;;;;;;;24.90;14.47;;;7.40;99.90;;;;;;5030862;28;20465;-82
2021/11/17 07:32:11;;;;;;;29.40;14.60;;;7.40;99.90;;;;;;5025078;28;20873;-81
2021/11/17 07:34:42;;;;;;;31.30;15.50;;;7.50;99.90;;;;;;5042205;28;20856;-81
2021/11/17 07:37:09;;;;;;;27.50;13.77;;;7.60;99.90;;;;;;5030810;28;20486;-82
2021/11/17 07:39:36;;;;;;;27.13;14.23;;;7.70;99.90;;;;;;5033732;28;21197;-82
2021/11/17 07:42:04;;;;;;;29.67;15.93;;;7.70;99.90;;;;;;5035383;28;20499;-82
2021/11/17 07:44:31;;;;;;;29.33;14.67;;;7.70;99.90;;;;;;5039805;28;20457;-82
2021/11/17 07:46:58;;;;;;;26.57;14.10;;;7.70;99.90;;;;;;5043431;28;20445;-82
2021/11/17 07:49:26;;;;;;;26.33;13.43;;;7.80;99.90;;;;;;5043752;28;20471;-82
2021/11/17 07:51:56;;;;;;;29.87;16.00;;;8.10;99.90;;;;;;5043915;28;20468;-81
2021/11/17 07:54:24;;;;;;;28.47;14.00;;;8.00;99.90;;;;;;5042280;28;20456;-81
2021/11/17 07:56:52;;;;;;;27.77;13.70;;;8.10;99.90;;;;;;5035676;28;20575;-82
2021/11/17 07:59:21;;;;;;;28.03;14.27;;;8.20;99.90;;;;;;5027467;28;20952;-82
2021/11/17 08:01:50;;;;;;;24.27;13.10;;;8.20;99.90;;;;;;5015732;28;21045;-82
2021/11/17 08:04:18;;;;;;;29.83;14.70;;;8.20;99.90;;;;;;5030495;28;20457;-82
2021/11/17 08:06:46;;;;;;;25.17;13.43;;;8.30;99.90;;;;;;5026486;28;21695;-82
2021/11/17 08:09:17;;;;;;;26.23;13.73;;;8.30;99.90;;;;;;5027319;28;20516;-83
2021/11/17 08:11:44;;;;;;;26.63;15.07;;;8.40;99.90;;;;;;5034683;28;20465;-83
2021/11/17 08:14:11;;;;;;;27.60;15.23;;;8.40;99.90;;;;;;5037868;28;20455;-84
2021/11/17 08:16:40;;;;;;;24.73;13.97;;;8.40;99.90;;;;;;5039572;28;20988;-84
2021/11/17 08:19:07;;;;;;;26.83;15.83;;;8.40;99.90;;;;;;5040026;28;20449;-83
2021/11/17 08:21:34;;;;;;;25.90;14.37;;;8.40;99.90;;;;;;5038494;28;20968;-83
2021/11/17 08:24:01;;;;;;;27.07;14.40;;;8.50;99.90;;;;;;5038171;28;20449;-83
2021/11/17 08:26:29;;;;;;;25.00;13.27;;;8.50;99.90;;;;;;5034529;28;20959;-83
2021/11/17 08:28:56;;;;;;;23.07;13.00;;;8.50;99.90;;;;;;5027596;28;21100;-83
2021/11/17 08:31:24;;;;;;;28.37;15.80;;;8.50;99.90;;;;;;5033485;28;20942;-83
2021/11/17 08:33:52;;;;;;;24.33;13.53;;;8.50;99.90;;;;;;5016773;28;20456;-84
2021/11/17 08:36:19;;;;;;;24.53;15.03;;;8.50;99.90;;;;;;5035056;28;20483;-83
2021/11/17 08:38:49;;;;;;;24.20;13.70;;;8.50;99.90;;;;;;5034187;28;20456;-82
2021/11/17 08:41:16;;;;;;;26.37;15.23;;;8.40;99.90;;;;;;5030022;28;20996;-82
2021/11/17 08:43:44;;;;;;;25.43;13.87;;;8.40;99.90;;;;;;5033737;28;20481;-83
2021/11/17 08:46:11;;;;;;;29.13;16.33;;;8.40;99.90;;;;;;5036317;28;20508;-84
2021/11/17 08:48:39;;;;;;;26.97;15.40;;;8.30;99.90;;;;;;5038079;28;20459;-83
2021/11/17 08:51:08;;;;;;;26.30;14.43;;;8.30;99.90;;;;;;5039155;28;20453;-83
2021/11/17 08:53:38;;;;;;;24.60;15.13;;;8.30;99.90;;;;;;5040796;28;20995;-83
2021/11/17 08:56:06;;;;;;;21.97;13.30;;;8.40;99.90;;;;;;5041697;28;20483;-84
2021/11/17 08:58:33;;;;;;;23.60;13.70;;;8.30;99.90;;;;;;5035371;28;20441;-83
2021/11/17 09:01:01;;;;;;;25.47;13.47;;;8.50;99.90;;;;;;5034623;28;20451;-82
2021/11/17 09:03:29;;;;;;;30.30;16.10;;;8.60;99.90;;;;;;5035342;28;20461;-83
2021/11/17 09:05:58;;;;;;;26.20;15.07;;;8.60;99.90;;;;;;5038745;28;20437;-82
2021/11/17 09:08:26;;;;;;;23.13;14.07;;;8.70;99.90;;;;;;5046687;28;20461;-83
2021/11/17 09:10:55;;;;;;;23.60;12.93;;;8.70;99.90;;;;;;5051979;28;20444;-83
2021/11/17 09:13:23;;;;;;;25.03;14.90;;;8.70;99.90;;;;;;5053351;28;20499;-83
2021/11/17 09:15:52;;;;;;;23.23;13.63;;;8.60;99.90;;;;;;5054392;28;20487;-84
2021/11/17 09:18:23;;;;;;;22.83;12.67;;;8.70;99.90;;;;;;5053552;28;20442;-83
2021/11/17 09:20:52;;;;;;;29.10;13.70;;;8.70;99.90;;;;;;5048279;28;20465;-83
2021/11/17 09:23:19;;;;;;;28.33;14.03;;;8.80;99.90;;;;;;5048753;28;20460;-84
2021/11/17 09:25:48;;;;;;;22.17;12.80;;;8.70;99.90;;;;;;5049124;28;20431;-83
2021/11/17 09:28:15;;;;;;;19.80;12.87;;;8.80;99.90;;;;;;5052913;28;20447;-84
2021/11/17 09:30:42;;;;;;;21.70;11.70;;;8.80;99.90;;;;;;5044586;28;20434;-84
2021/11/17 09:33:11;;;;;;;20.03;12.70;;;8.90;99.90;;;;;;5038533;28;20455;-83
2021/11/17 09:35:40;;;;;;;19.37;12.10;;;8.90;99.90;;;;;;5036589;28;20444;-84
2021/11/17 09:38:09;;;;;;;21.07;12.30;;;8.90;99.90;;;;;;5047611;28;20446;-81
2021/11/17 09:40:41;;;;;;;20.23;11.80;;;9.10;99.90;;;;;;5035733;28;20449;-81
2021/11/17 09:43:09;;;;;;;19.87;12.37;;;9.10;99.90;;;;;;5035668;28;20492;-80
2021/11/17 09:45:39;;;;;;;20.20;12.43;;;9.00;99.90;;;;;;5036049;28;20446;-79
2021/11/17 09:48:07;;;;;;;21.63;12.77;;;9.00;99.90;;;;;;5035067;28;20807;-80
2021/11/17 09:50:40;;;;;;;21.97;12.30;;;8.90;99.90;;;;;;5035024;28;20444;-80
2021/11/17 09:53:12;;;;;;;20.47;12.40;;;8.90;99.90;;;;;;5028874;28;20468;-80
2021/11/17 09:55:42;;;;;;;21.90;11.67;;;8.90;99.90;;;;;;5036154;28;20445;-82
2021/11/17 09:58:15;;;;;;;22.67;12.93;;;8.90;99.90;;;;;;5037923;28;20459;-82
2021/11/17 10:00:46;;;;;;;20.13;12.23;;;8.90;99.90;;;;;;5037077;28;20449;-82
2021/11/17 10:03:15;;;;;;;21.30;11.83;;;8.90;99.90;;;;;;5037523;28;20461;-79
2021/11/17 10:14:23;;;;;;;19.53;12.00;;;8.80;99.90;;;;;;5030571;28;20838;-80
2021/11/17 10:16:51;;;;;;;20.37;11.97;;;8.90;99.90;;;;;;5036107;28;20472;-80
2021/11/17 10:19:23;;;;;;;22.27;12.13;;;8.80;99.90;;;;;;5030160;28;20447;-80
2021/11/17 10:22:00;;;;;;;27.07;13.07;;;8.80;99.90;;;;;;5032720;28;20848;-80
2021/11/17 10:24:43;;;;;;;23.50;12.33;;;8.90;99.90;;;;;;5035457;28;20445;-80
2021/11/17 10:27:13;;;;;;;22.73;13.90;;;8.80;99.90;;;;;;5022024;28;20457;-79
2021/11/17 10:30:01;;;;;;;24.77;13.47;;;8.90;99.90;;;;;;5035886;28;20456;-80
2021/11/17 10:32:37;;;;;;;21.33;12.23;;;9.00;99.90;;;;;;5037196;28;20499;-80
2021/11/17 10:35:13;;;;;;;20.40;11.17;;;9.00;99.90;;;;;;5034613;28;20452;-81
2021/11/17 10:37:44;;;;;;;22.80;13.30;;;9.10;99.90;;;;;;5036735;28;20477;-81
2021/11/17 10:40:17;;;;;;;22.40;13.33;;;9.00;99.90;;;;;;5036911;28;20456;-81
2021/11/17 10:42:44;;;;;;;20.27;12.07;;;9.10;99.90;;;;;;5035826;28;20994;-81
2021/11/17 10:45:28;;;;;;;22.23;12.97;;;9.10;99.90;;;;;;5037045;28;20455;-82
2021/11/17 10:47:55;;;;;;;21.23;12.33;;;9.20;99.90;;;;;;5033478;28;20449;-82
2021/11/17 10:50:25;;;;;;;24.47;12.97;;;9.20;99.90;;;;;;5029238;28;20449;-82
2021/11/17 10:52:56;;;;;;;22.43;12.23;;;9.30;99.90;;;;;;5039991;28;20555;-81
2021/11/17 10:55:27;;;;;;;23.23;11.73;;;9.20;99.90;;;;;;5048402;28;20448;-81
2021/11/17 10:57:55;;;;;;;22.53;13.20;;;9.10;99.90;;;;;;5035840;28;20475;-82
2021/11/17 11:00:25;;;;;;;22.40;12.67;;;9.10;99.90;;;;;;5035488;28;20460;-82
2021/11/17 11:02:53;;;;;;;24.43;12.87;;;9.00;99.90;;;;;;5037852;28;20470;-81
2021/11/17 11:05:23;;;;;;;24.57;13.70;;;9.00;99.90;;;;;;5029017;28;20451;-80
2021/11/17 11:07:57;;;;;;;25.70;12.40;;;9.00;99.90;;;;;;5039233;28;20449;-81
2021/11/17 11:10:33;;;;;;;21.80;12.07;;;9.00;99.90;;;;;;5029554;28;20453;-81
2021/11/17 11:13:07;;;;;;;26.33;13.23;;;9.00;99.90;;;;;;5033282;28;20465;-80
2021/11/17 11:15:43;;;;;;;24.50;12.43;;;9.00;99.90;;;;;;5035003;28;21152;-81
2021/11/17 11:18:42;;;;;;;24.77;12.80;;;9.00;99.90;;;;;;5034673;28;20480;-81
2021/11/17 11:21:12;;;;;;;28.67;13.60;;;9.00;99.90;;;;;;5034682;28;20472;-81
2021/11/17 11:24:31;;;;;;;28.43;11.40;;;9.10;99.90;;;;;;5032824;28;20533;-81
2021/11/17 11:27:30;;;;;;;28.23;13.33;;;8.80;99.90;;;;;;5031752;28;20441;-80
2021/11/17 11:30:46;;;;;;;24.97;14.20;;;8.90;99.90;;;;;;5025135;28;20457;-81
2021/11/17 11:33:22;;;;;;;27.30;13.87;;;8.90;99.90;;;;;;5029193;28;20475;-77
2021/11/17 11:36:24;;;;;;;26.63;13.60;;;9.10;99.90;;;;;;5023961;28;20446;-81
2021/11/17 11:39:14;;;;;;;25.50;14.70;;;9.10;99.90;;;;;;5030860;28;20447;-80
2021/11/17 11:41:47;;;;;;;24.63;13.60;;;9.20;99.90;;;;;;5043335;28;20464;-80
2021/11/17 11:44:36;;;;;;;24.20;12.80;;;9.20;99.90;;;;;;5034542;28;20456;-81
2021/11/17 11:47:36;;;;;;;27.07;13.40;;;9.20;99.90;;;;;;5029158;28;20472;-80
2021/11/17 11:50:42;;;;;;;30.27;13.43;;;9.20;99.90;;;;;;5032608;28;20927;-78
2021/11/17 11:53:11;;;;;;;28.63;13.23;;;9.10;99.90;;;;;;5025028;28;20461;-78
2021/11/17 11:56:02;;;;;;;27.63;14.70;;;9.00;99.90;;;;;;5031131;28;20449;-79
2021/11/17 11:58:42;;;;;;;35.43;15.20;;;9.00;99.90;;;;;;5031711;28;20558;-81
2021/11/17 12:01:18;;;;;;;33.27;17.40;;;8.90;99.90;;;;;;5032643;28;21149;-78
2021/11/17 12:03:51;;;;;;;35.00;15.90;;;8.90;99.90;;;;;;5032120;28;20469;-78
2021/11/17 12:06:26;;;;;;;35.77;18.10;;;8.90;99.90;;;;;;5024918;28;20463;-79
2021/11/17 12:09:01;;;;;;;33.07;16.93;;;8.90;99.90;;;;;;5026391;28;20480;-78
2021/11/17 12:11:32;;;;;;;40.53;19.10;;;8.90;99.90;;;;;;5030467;28;20941;-78
2021/11/17 12:14:06;;;;;;;33.00;16.10;;;8.80;99.90;;;;;;5031643;28;20445;-81
2021/11/17 12:16:37;;;;;;;43.27;17.40;;;8.80;99.90;;;;;;5030113;28;20556;-81
2021/11/17 12:19:08;;;;;;;30.90;15.90;;;8.90;99.90;;;;;;5026708;28;20458;-81
2021/11/17 12:21:52;;;;;;;34.10;17.77;;;8.70;99.90;;;;;;5026652;28;20673;-81
2021/11/17 12:24:25;;;;;;;37.57;16.90;;;8.90;99.90;;;;;;5028483;28;20830;-81
2021/11/17 12:27:01;;;;;;;33.30;16.83;;;8.90;99.90;;;;;;5027219;28;20842;-82
2021/11/17 12:29:41;;;;;;;38.87;18.87;;;8.90;99.90;;;;;;5022706;28;20447;-79
2021/11/17 12:32:13;;;;;;;41.40;18.40;;;8.90;99.90;;;;;;5020100;28;20886;-81
2021/11/17 12:34:54;;;;;;;38.07;17.60;;;8.90;99.90;;;;;;5026617;28;20507;-81
2021/11/17 12:37:26;;;;;;;36.70;18.30;;;8.90;99.90;;;;;;5019326;28;20484;-81
2021/11/17 12:39:56;;;;;;;36.43;18.80;;;8.80;99.90;;;;;;5028071;28;20460;-81
2021/11/17 12:42:30;;;;;;;37.80;16.90;;;8.90;99.90;;;;;;5028684;28;21029;-81
2021/11/17 12:45:13;;;;;;;41.53;18.30;;;8.90;99.90;;;;;;5032207;28;20456;-81
2021/11/17 12:47:48;;;;;;;35.73;16.53;;;8.90;99.90;;;;;;5038173;28;20444;-78
2021/11/17 12:50:18;;;;;;;38.30;18.80;;;8.90;99.90;;;;;;5038451;28;20444;-81
2021/11/17 12:52:50;;;;;;;39.00;18.77;;;8.90;99.90;;;;;;5037071;28;20464;-80
2021/11/17 12:55:21;;;;;;;40.60;19.50;;;8.90;99.90;;;;;;5038330;28;20437;-82
2021/11/17 12:57:53;;;;;;;37.53;17.80;;;8.90;99.90;;;;;;5037956;28;20503;-78
2021/11/17 13:00:47;;;;;;;39.17;18.30;;;9.00;99.90;;;;;;5038622;28;20973;-81
2021/11/17 13:03:33;;;;;;;33.70;16.27;;;9.00;99.90;;;;;;5038492;28;20466;-81
2021/11/17 13:06:16;;;;;;;42.00;18.20;;;9.00;99.90;;;;;;5039868;28;20450;-81
2021/11/17 13:08:44;;;;;;;32.67;17.20;;;9.00;99.90;;;;;;5036839;28;20467;-80
2021/11/17 13:11:19;;;;;;;41.80;19.33;;;9.10;99.90;;;;;;5033031;28;20476;-80
2021/11/17 13:13:51;;;;;;;34.67;17.80;;;8.90;99.90;;;;;;5037848;28;20468;-79
2021/11/17 13:16:26;;;;;;;35.83;15.97;;;8.90;99.90;;;;;;5027228;28;20455;-81
2021/11/17 13:18:58;;;;;;;29.67;14.70;;;8.90;99.90;;;;;;5034974;28;20484;-79
2021/11/17 13:21:37;;;;;;;37.80;16.63;;;9.00;99.90;;;;;;5041160;28;20528;-79
2021/11/17 13:24:30;;;;;;;35.30;18.90;;;9.00;99.90;;;;;;5042717;28;20457;-80
2021/11/17 13:27:37;;;;;;;34.73;16.07;;;8.90;99.90;;;;;;5036777;28;20456;-78
2021/11/17 13:30:31;;;;;;;30.67;15.90;;;8.90;99.90;;;;;;5016477;28;20476;-81
2021/11/17 13:33:16;;;;;;;46.67;20.57;;;9.00;99.90;;;;;;5021227;28;20488;-80
2021/11/17 13:35:44;;;;;;;37.50;18.83;;;9.00;99.90;;;;;;5020553;28;20465;-81
2021/11/17 13:38:17;;;;;;;38.27;18.23;;;9.10;99.90;;;;;;5030032;28;20485;-80
2021/11/17 13:40:45;;;;;;;38.43;19.17;;;9.20;99.90;;;;;;5044712;28;20453;-81
2021/11/17 13:43:12;;;;;;;36.97;17.93;;;9.20;99.90;;;;;;5044290;28;20503;-80
2021/11/17 13:45:41;;;;;;;37.97;17.00;;;9.20;99.90;;;;;;5047348;28;20452;-78
2021/11/17 13:48:09;;;;;;;48.27;18.87;;;9.30;99.90;;;;;;5045030;28;20450;-80
2021/11/17 13:50:39;;;;;;;37.67;17.40;;;9.20;99.90;;;;;;5036776;28;20457;-82
2021/11/17 13:53:08;;;;;;;34.03;17.07;;;9.10;99.90;;;;;;5039958;28;20475;-80
2021/11/17 13:55:37;;;;;;;42.20;18.30;;;9.20;99.90;;;;;;5040454;28;20443;-80
2021/11/17 13:58:06;;;;;;;36.90;17.77;;;9.20;99.90;;;;;;5042045;28;20482;-80
2021/11/17 14:00:33;;;;;;;37.13;15.80;;;9.30;99.90;;;;;;5037608;28;20461;-80
2021/11/17 14:02:59;;;;;;;36.77;18.67;;;9.30;99.90;;;;;;5041218;28;20475;-81
2021/11/17 14:05:28;;;;;;;38.43;19.63;;;9.20;99.90;;;;;;5037471;28;20455;-80
2021/11/17 14:07:55;;;;;;;38.10;16.00;;;9.30;99.90;;;;;;5038754;28;20975;-79
2021/11/17 14:10:23;;;;;;;32.97;16.77;;;9.40;99.90;;;;;;5040317;28;20456;-80
2021/11/17 14:12:52;;;;;;;37.30;17.90;;;9.50;99.90;;;;;;5039169;28;20834;-79
2021/11/17 14:15:19;;;;;;;40.73;20.43;;;9.50;99.90;;;;;;5037406;28;20553;-79
2021/11/17 14:17:47;;;;;;;31.30;15.70;;;9.40;99.90;;;;;;5036833;28;20515;-80
2021/11/17 14:20:15;;;;;;;28.93;15.40;;;9.50;99.90;;;;;;5034568;28;21161;-80
2021/11/17 14:22:44;;;;;;;40.97;16.13;;;9.40;99.90;;;;;;5037288;28;20476;-79
2021/11/17 14:25:16;;;;;;;35.40;16.40;;;9.50;99.90;;;;;;5036322;28;20955;-82
2021/11/17 14:27:46;;;;;;;40.50;18.60;;;9.40;99.90;;;;;;5036120;28;20500;-80
2021/11/17 14:30:15;;;;;;;41.53;18.20;;;9.40;99.90;;;;;;5037276;28;20463;-80
2021/11/17 14:32:47;;;;;;;39.97;17.50;;;9.60;99.90;;;;;;5037628;28;20483;-79
2021/11/17 14:35:14;;;;;;;37.70;18.03;;;9.40;99.90;;;;;;5036682;28;20455;-80
2021/11/17 14:37:43;;;;;;;45.63;21.83;;;9.40;99.90;;;;;;5040680;28;20485;-80
2021/11/17 14:40:13;;;;;;;39.47;20.27;;;9.40;99.90;;;;;;5035419;28;20446;-80
2021/11/17 14:42:41;;;;;;;41.93;19.60;;;9.40;99.90;;;;;;5035428;28;21013;-79
2021/11/17 14:45:11;;;;;;;45.20;21.23;;;9.40;99.90;;;;;;5035692;28;20471;-81
2021/11/17 14:47:38;;;;;;;44.03;20.70;;;9.40;99.90;;;;;;5019862;28;20459;-80
2021/11/17 14:50:07;;;;;;;38.90;20.00;;;9.50;99.90;;;;;;5028887;28;20450;-80
2021/11/17 14:52:34;;;;;;;62.17;23.77;;;9.50;99.90;;;;;;5026896;28;20523;-80
2021/11/17 14:55:04;;;;;;;44.17;21.27;;;9.50;99.90;;;;;;5023937;28;20961;-81
2021/11/17 14:57:31;;;;;;;47.17;21.53;;;9.40;99.90;;;;;;5024482;28;20864;-80
2021/11/17 14:59:58;;;;;;;53.83;22.20;;;9.50;99.90;;;;;;5025467;28;20454;-81
2021/11/17 15:02:29;;;;;;;46.77;22.30;;;9.50;99.90;;;;;;5039899;28;20500;-80
2021/11/17 15:04:56;;;;;;;52.33;22.40;;;9.50;99.90;;;;;;5035173;28;20488;-79
2021/11/17 15:07:23;;;;;;;52.63;21.87;;;9.50;99.90;;;;;;5035979;28;20450;-80
2021/11/17 15:09:49;;;;;;;48.13;21.93;;;9.60;99.90;;;;;;5033658;28;20451;-80
2021/11/17 15:12:20;;;;;;;49.73;24.57;;;9.60;99.90;;;;;;5035257;28;20474;-79
2021/11/17 15:14:47;;;;;;;46.00;24.00;;;9.50;99.90;;;;;;5035124;28;20449;-80
2021/11/17 15:17:14;;;;;;;54.47;23.20;;;9.60;99.90;;;;;;5036139;28;20441;-80
2021/11/17 15:19:42;;;;;;;57.53;24.83;;;9.60;99.90;;;;;;5036200;28;20558;-80
2021/11/17 15:22:09;;;;;;;68.03;29.63;;;9.60;99.90;;;;;;5035034;28;20672;-79
2021/11/17 15:24:36;;;;;;;55.50;27.30;;;9.60;99.90;;;;;;5035135;28;20450;-80
2021/11/17 15:27:09;;;;;;;60.07;25.90;;;9.60;99.90;;;;;;5035154;28;20459;-81
2021/11/17 15:29:39;;;;;;;60.20;27.00;;;9.60;99.90;;;;;;5028578;28;20447;-80
2021/11/17 15:32:07;;;;;;;57.20;25.67;;;9.60;99.90;;;;;;5030977;28;20473;-80
2021/11/17 15:34:34;;;;;;;56.53;26.67;;;9.60;99.90;;;;;;5036276;28;20972;-81
2021/11/17 15:37:01;;;;;;;78.40;31.77;;;9.60;99.90;;;;;;5035467;28;20539;-80
2021/11/17 15:39:28;;;;;;;69.00;27.80;;;9.60;99.90;;;;;;5033824;28;20578;-80
2021/11/17 15:41:55;;;;;;;58.70;28.43;;;9.60;99.90;;;;;;5035808;28;20478;-80
2021/11/17 15:44:22;;;;;;;64.43;28.60;;;9.60;99.90;;;;;;5025794;28;20439;-79
2021/11/17 15:46:57;;;;;;;95.77;46.50;;;9.60;99.90;;;;;;5032701;28;20459;-78
2021/11/17 15:49:25;;;;;;;91.00;38.67;;;9.50;99.90;;;;;;5030413;28;20501;-81
2021/11/17 15:51:52;;;;;;;77.13;30.33;;;9.50;99.90;;;;;;5023957;28;20912;-79